createdAt,value
2023-04-16T00:01:14.387Z,96254.84
2023-04-16T00:04:11.409Z,96254.94
2023-04-16T00:07:08.579Z,96254.41
2023-04-16T00:10:06.365Z,96262.94
2023-04-16T00:13:03.188Z,96256.28
2023-04-16T00:16:00.031Z,96260.09
2023-04-16T00:18:56.873Z,96253.19
2023-04-16T00:21:53.831Z,96259.06
2023-04-16T00:24:51.489Z,96258.72
2023-04-16T00:27:48.293Z,96261.25
2023-04-16T00:30:45.206Z,96259.06
2023-04-16T00:33:42.076Z,96257.22
2023-04-16T00:36:39.007Z,96260.41
2023-04-16T00:39:36.029Z,96257.34
2023-04-16T00:42:32.866Z,96252.69
2023-04-16T00:45:29.986Z,96253.25
2023-04-16T00:48:32.337Z,96257.22
2023-04-16T00:51:29.480Z,96255.34
2023-04-16T00:54:26.455Z,96255.72
2023-04-16T00:57:24.017Z,96261.44
2023-04-16T01:00:21.653Z,96258.00
2023-04-16T01:03:18.628Z,96255.47
2023-04-16T01:06:17.933Z,96258.41
2023-04-16T01:09:14.781Z,96264.09
2023-04-16T01:12:11.606Z,96257.00
2023-04-16T01:15:09.025Z,96256.25
2023-04-16T01:18:22.878Z,96255.13
2023-04-16T01:21:19.689Z,96267.06
2023-04-16T01:24:16.534Z,96266.44
2023-04-16T01:27:13.343Z,96264.63
2023-04-16T01:30:10.565Z,96259.16
2023-04-16T01:33:08.883Z,96263.91
2023-04-16T01:36:06.063Z,96269.66
2023-04-16T01:39:04.364Z,96266.13
2023-04-16T01:42:02.314Z,96271.84
2023-04-16T01:44:59.225Z,96269.50
2023-04-16T01:47:56.155Z,96269.50
2023-04-16T01:50:53.085Z,96267.06
2023-04-16T01:53:51.060Z,96265.91
2023-04-16T01:56:48.341Z,96269.72
2023-04-16T01:59:45.342Z,96268.59
2023-04-16T02:02:42.304Z,96274.75
2023-04-16T02:05:39.213Z,96264.19
2023-04-16T02:08:36.193Z,96274.19
2023-04-16T02:11:32.999Z,96259.31
2023-04-16T02:14:31.021Z,96267.56
2023-04-16T02:17:27.861Z,96264.06
2023-04-16T02:20:24.696Z,96272.50
2023-04-16T02:23:21.522Z,96273.97
2023-04-16T02:26:18.393Z,96278.56
2023-04-16T02:29:16.525Z,96277.00
2023-04-16T02:32:13.511Z,96274.97
2023-04-16T02:35:10.431Z,96273.59
2023-04-16T02:38:08.286Z,96277.50
2023-04-16T02:41:05.232Z,96281.59
2023-04-16T02:44:02.059Z,96276.47
2023-04-16T02:46:58.870Z,96277.34
2023-04-16T02:49:55.672Z,96279.22
2023-04-16T02:52:52.799Z,96277.25
2023-04-16T02:55:53.691Z,96287.81
2023-04-16T02:58:50.626Z,96287.69
2023-04-16T03:01:47.598Z,96289.84
2023-04-16T03:04:44.642Z,96287.13
2023-04-16T03:07:41.540Z,96288.72
2023-04-16T03:10:38.353Z,96283.63
2023-04-16T03:13:35.163Z,96294.59
2023-04-16T03:16:32.194Z,96302.38
2023-04-16T03:19:28.993Z,96292.22
2023-04-16T03:22:25.808Z,96291.88
2023-04-16T03:25:22.655Z,96293.22
2023-04-16T03:28:19.605Z,96297.75
2023-04-16T03:31:16.490Z,96301.38
2023-04-16T03:34:13.339Z,96304.13
2023-04-16T03:37:12.072Z,96304.91
2023-04-16T03:40:09.339Z,96307.28
2023-04-16T03:43:06.330Z,96308.84
2023-04-16T03:46:03.175Z,96306.44
2023-04-16T03:49:00.027Z,96312.25
2023-04-16T03:51:56.850Z,96308.66
2023-04-16T03:54:53.707Z,96312.31
2023-04-16T03:57:50.523Z,96314.06
2023-04-16T04:00:47.396Z,96322.13
2023-04-16T04:03:44.405Z,96323.41
2023-04-16T04:06:41.418Z,96326.34
2023-04-16T04:09:38.252Z,96328.00
2023-04-16T04:12:35.083Z,96334.06
2023-04-16T04:15:32.385Z,96329.22
2023-04-16T04:18:29.270Z,96327.06
2023-04-16T04:21:27.302Z,96332.06
2023-04-16T04:24:24.177Z,96339.38
2023-04-16T04:27:20.980Z,96334.06
2023-04-16T04:30:17.844Z,96339.53
2023-04-16T04:33:14.684Z,96336.94
2023-04-16T04:36:11.583Z,96338.13
2023-04-16T04:39:08.782Z,96341.47
2023-04-16T04:42:05.989Z,96343.91
2023-04-16T04:45:02.783Z,96358.31
2023-04-16T04:47:59.645Z,96351.56
2023-04-16T04:50:56.495Z,96356.19
2023-04-16T04:53:53.322Z,96360.88
2023-04-16T04:56:52.492Z,96363.03
2023-04-16T04:59:49.361Z,96367.84
2023-04-16T05:02:47.386Z,96366.69
2023-04-16T05:05:44.354Z,96362.69
2023-04-16T05:08:41.165Z,96366.69
2023-04-16T05:11:39.268Z,96363.59
2023-04-16T05:14:36.347Z,96372.47
2023-04-16T05:17:33.233Z,96373.47
2023-04-16T05:20:30.111Z,96370.88
2023-04-16T05:23:26.935Z,96375.00
2023-04-16T05:26:23.761Z,96377.31
2023-04-16T05:29:20.694Z,96382.50
2023-04-16T05:32:17.595Z,96381.06
2023-04-16T05:35:17.228Z,96387.84
2023-04-16T05:38:14.386Z,96389.75
2023-04-16T05:41:11.250Z,96389.19
2023-04-16T05:44:08.038Z,96395.66
2023-04-16T05:47:04.855Z,96406.47
2023-04-16T05:50:01.768Z,96403.50
2023-04-16T05:52:58.643Z,96409.47
2023-04-16T05:55:55.470Z,96411.69
2023-04-16T05:58:52.277Z,96415.31
2023-04-16T06:01:49.089Z,96422.69
2023-04-16T06:04:46.288Z,96418.75
2023-04-16T06:07:43.117Z,96431.72
2023-04-16T06:10:40.001Z,96429.44
2023-04-16T06:13:37.458Z,96435.63
2023-04-16T06:16:34.327Z,96432.13
2023-04-16T06:19:31.180Z,96435.78
2023-04-16T06:22:28.051Z,96432.41
2023-04-16T06:25:24.870Z,96439.59
2023-04-16T06:28:21.898Z,96446.41
2023-04-16T06:31:18.739Z,96445.94
2023-04-16T06:34:16.009Z,96463.34
2023-04-16T06:37:12.795Z,96464.84
2023-04-16T06:40:10.309Z,96461.50
2023-04-16T06:43:07.180Z,96471.34
2023-04-16T06:46:03.994Z,96470.03
2023-04-16T06:49:00.817Z,96475.91
2023-04-16T06:51:58.117Z,96474.44
2023-04-16T06:54:54.945Z,96476.53
2023-04-16T06:57:51.752Z,96484.69
2023-04-16T07:00:48.669Z,96482.97
2023-04-16T07:03:45.715Z,96481.72
2023-04-16T07:06:42.748Z,96483.31
2023-04-16T07:09:39.567Z,96481.56
2023-04-16T07:12:36.529Z,96489.50
2023-04-16T07:15:33.366Z,96483.75
2023-04-16T07:18:30.229Z,96494.06
2023-04-16T07:21:27.701Z,96489.56
2023-04-16T07:24:24.545Z,96483.94
2023-04-16T07:27:21.377Z,96483.47
2023-04-16T07:30:18.313Z,96498.38
2023-04-16T07:33:15.237Z,96489.97
2023-04-16T07:36:12.356Z,96498.31
2023-04-16T07:39:10.952Z,96501.16
2023-04-16T07:42:08.011Z,96498.41
2023-04-16T07:45:05.465Z,96502.59
2023-04-16T07:48:02.530Z,96495.28
2023-04-16T07:50:59.419Z,96503.88
2023-04-16T07:53:56.228Z,96505.44
2023-04-16T07:56:53.042Z,96513.03
2023-04-16T07:59:49.958Z,96506.22
2023-04-16T08:02:46.909Z,96513.75
2023-04-16T08:05:43.865Z,96519.34
2023-04-16T08:08:40.775Z,96517.78
2023-04-16T08:11:37.681Z,96523.13
2023-04-16T08:14:34.534Z,96529.72
2023-04-16T08:17:31.429Z,96535.97
2023-04-16T08:20:28.368Z,96537.13
2023-04-16T08:23:25.289Z,96546.84
2023-04-16T08:26:22.147Z,96562.09
2023-04-16T08:29:19.191Z,96553.81
2023-04-16T08:32:16.004Z,96562.72
2023-04-16T08:35:12.885Z,96571.03
2023-04-16T08:38:09.738Z,96579.28
2023-04-16T08:41:12.272Z,96576.69
2023-04-16T08:44:18.339Z,96584.91
2023-04-16T08:47:16.400Z,96576.22
2023-04-16T08:50:23.167Z,96592.72
2023-04-16T08:53:26.214Z,96589.25
2023-04-16T08:56:24.600Z,96592.97
2023-04-16T08:59:22.515Z,96595.47
2023-04-16T09:02:19.780Z,96597.88
2023-04-16T09:05:17.311Z,96602.03
2023-04-16T09:08:14.246Z,96596.53
2023-04-16T09:11:12.059Z,96605.53
2023-04-16T09:14:11.319Z,96602.78
2023-04-16T09:17:09.681Z,96602.09
2023-04-16T09:20:08.941Z,96599.81
2023-04-16T09:23:05.790Z,96606.94
2023-04-16T09:26:05.532Z,96618.44
2023-04-16T09:29:02.726Z,96611.09
2023-04-16T09:32:08.398Z,96617.09
2023-04-16T09:35:05.852Z,96620.13
2023-04-16T09:38:02.711Z,96629.31
2023-04-16T09:41:09.038Z,96626.56
2023-04-16T09:44:06.007Z,96631.81
2023-04-16T09:47:07.802Z,96630.91
2023-04-16T09:50:05.036Z,96637.44
2023-04-16T09:53:03.584Z,96643.16
2023-04-16T09:56:05.016Z,96648.44
2023-04-16T09:59:02.148Z,96645.47
2023-04-16T10:02:14.507Z,96647.16
2023-04-16T10:05:17.725Z,96653.97
2023-04-16T10:08:14.943Z,96652.47
2023-04-16T10:11:11.904Z,96649.84
2023-04-16T10:14:08.724Z,96659.81
2023-04-16T10:17:06.527Z,96661.81
2023-04-16T10:20:04.057Z,96667.03
2023-04-16T10:23:01.966Z,96671.84
2023-04-16T10:26:01.013Z,96671.03
2023-04-16T10:28:59.417Z,96674.47
2023-04-16T10:31:57.030Z,96675.50
2023-04-16T10:34:55.340Z,96684.41
2023-04-16T10:38:26.987Z,96685.53
2023-04-16T10:41:25.380Z,96680.75
2023-04-16T10:44:25.261Z,96689.63
2023-04-16T10:47:26.057Z,96695.25
2023-04-16T10:50:22.959Z,96692.91
2023-04-16T10:53:26.956Z,96690.03
2023-04-16T10:56:27.684Z,96685.59
2023-04-16T10:59:25.754Z,96693.84
2023-04-16T11:02:29.196Z,96690.47
2023-04-16T11:05:47.030Z,96692.38
2023-04-16T11:08:54.697Z,96691.81
2023-04-16T11:11:52.421Z,96689.78
2023-04-16T11:15:14.533Z,96691.28
2023-04-16T11:18:11.418Z,96695.63
2023-04-16T11:21:12.696Z,96699.47
2023-04-16T11:24:12.762Z,96715.63
2023-04-16T11:27:09.637Z,96706.59
2023-04-16T11:30:11.057Z,96702.56
2023-04-16T11:33:12.126Z,96714.59
2023-04-16T11:36:09.135Z,96719.81
2023-04-16T11:39:05.924Z,96717.91
2023-04-16T11:42:02.748Z,96720.53
2023-04-16T11:45:00.768Z,96721.41
2023-04-16T11:47:57.971Z,96724.22
2023-04-16T11:50:58.873Z,96726.88
2023-04-16T11:53:56.195Z,96729.69
2023-04-16T11:56:53.787Z,96728.97
2023-04-16T12:00:02.121Z,96723.34
2023-04-16T12:03:00.573Z,96722.06
2023-04-16T12:06:09.353Z,96719.59
2023-04-16T12:09:26.150Z,96727.75
2023-04-16T12:12:31.860Z,96726.38
2023-04-16T12:15:48.100Z,96735.81
2023-04-16T12:19:01.544Z,96733.16
2023-04-16T12:22:01.296Z,96730.00
2023-04-16T12:25:18.274Z,96732.38
2023-04-16T12:28:16.506Z,96728.06
2023-04-16T12:31:14.530Z,96733.41
2023-04-16T12:34:11.418Z,96732.16
2023-04-16T12:37:11.201Z,96732.22
2023-04-16T12:40:08.699Z,96745.72
2023-04-16T12:43:05.594Z,96745.72
2023-04-16T12:46:04.146Z,96737.47
2023-04-16T12:49:01.295Z,96735.97
2023-04-16T12:51:58.176Z,96734.22
2023-04-16T12:54:55.080Z,96733.22
2023-04-16T12:57:54.937Z,96741.44
2023-04-16T13:00:51.762Z,96732.31
2023-04-16T13:03:49.548Z,96735.91
2023-04-16T13:06:46.655Z,96732.03
2023-04-16T13:09:44.520Z,96735.41
2023-04-16T13:12:41.362Z,96729.06
2023-04-16T13:15:38.286Z,96739.00
2023-04-16T13:18:36.930Z,96741.19
2023-04-16T13:21:34.449Z,96737.09
2023-04-16T13:24:31.337Z,96737.88
2023-04-16T13:27:28.203Z,96742.88
2023-04-16T13:30:25.713Z,96739.50
2023-04-16T13:33:22.765Z,96742.75
2023-04-16T13:36:19.636Z,96744.19
2023-04-16T13:39:16.485Z,96748.44
2023-04-16T13:42:13.295Z,96761.91
2023-04-16T13:45:10.156Z,96756.13
2023-04-16T13:48:06.956Z,96762.78
2023-04-16T13:51:04.192Z,96763.13
2023-04-16T13:54:01.094Z,96762.03
2023-04-16T13:56:57.969Z,96757.19
2023-04-16T13:59:56.086Z,96771.16
2023-04-16T14:02:53.549Z,96777.81
2023-04-16T14:05:50.736Z,96775.97
2023-04-16T14:08:47.555Z,96771.69
2023-04-16T14:11:44.405Z,96771.94
2023-04-16T14:14:41.835Z,96767.75
2023-04-16T14:17:38.680Z,96766.59
2023-04-16T14:20:35.534Z,96772.91
2023-04-16T14:23:32.747Z,96771.25
2023-04-16T14:26:29.562Z,96775.09
2023-04-16T14:29:26.399Z,96777.69
2023-04-16T14:32:23.237Z,96781.59
2023-04-16T14:35:20.334Z,96784.41
2023-04-16T14:38:17.259Z,96787.97
2023-04-16T14:41:14.229Z,96788.91
2023-04-16T14:44:11.076Z,96794.25
2023-04-16T14:47:08.579Z,96787.66
2023-04-16T14:50:06.238Z,96787.59
2023-04-16T14:53:03.485Z,96794.69
2023-04-16T14:56:00.584Z,96795.66
2023-04-16T14:58:57.441Z,96800.56
2023-04-16T15:01:56.915Z,96799.91
2023-04-16T15:04:54.465Z,96792.88
2023-04-16T15:07:51.257Z,96798.22
2023-04-16T15:10:48.079Z,96794.25
2023-04-16T15:13:44.951Z,96790.63
2023-04-16T15:16:41.967Z,96802.06
2023-04-16T15:19:38.805Z,96799.03
2023-04-16T15:22:35.612Z,96803.84
2023-04-16T15:25:32.443Z,96808.00
2023-04-16T15:28:29.353Z,96800.75
2023-04-16T15:31:26.613Z,96815.03
2023-04-16T15:34:23.559Z,96814.31
2023-04-16T15:37:20.361Z,96817.91
2023-04-16T15:40:18.806Z,96811.88
2023-04-16T15:43:16.198Z,96806.88
2023-04-16T15:46:13.133Z,96815.34
2023-04-16T15:49:10.181Z,96821.56
2023-04-16T15:52:07.563Z,96815.88
2023-04-16T15:55:05.324Z,96824.72
2023-04-16T15:58:03.112Z,96824.09
2023-04-16T16:00:59.934Z,96828.53
2023-04-16T16:03:56.978Z,96823.72
2023-04-16T16:06:54.271Z,96824.03
2023-04-16T16:09:53.054Z,96835.25
2023-04-16T16:12:49.922Z,96832.94
2023-04-16T16:15:46.785Z,96830.22
2023-04-16T16:18:43.746Z,96840.22
2023-04-16T16:21:40.972Z,96844.53
2023-04-16T16:24:37.810Z,96838.47
2023-04-16T16:27:36.098Z,96840.44
2023-04-16T16:30:33.023Z,96849.19
2023-04-16T16:33:30.556Z,96838.53
2023-04-16T16:36:27.405Z,96849.50
2023-04-16T16:39:25.320Z,96849.22
2023-04-16T16:42:22.130Z,96843.22
2023-04-16T16:45:19.239Z,96851.25
2023-04-16T16:48:16.073Z,96854.75
2023-04-16T16:51:14.879Z,96854.94
2023-04-16T16:54:11.730Z,96846.53
2023-04-16T16:57:08.665Z,96849.75
2023-04-16T17:00:14.108Z,96848.91
2023-04-16T17:03:11.182Z,96849.69
2023-04-16T17:06:08.828Z,96850.78
2023-04-16T17:09:05.776Z,96859.34
2023-04-16T17:12:02.624Z,96856.94
2023-04-16T17:14:59.431Z,96857.41
2023-04-16T17:17:56.740Z,96866.84
2023-04-16T17:20:53.558Z,96866.00
2023-04-16T17:23:50.407Z,96862.50
2023-04-16T17:26:47.263Z,96875.41
2023-04-16T17:29:44.086Z,96874.06
2023-04-16T17:32:41.012Z,96872.97
2023-04-16T17:35:40.495Z,96872.69
2023-04-16T17:38:37.334Z,96877.78
2023-04-16T17:41:34.132Z,96870.88
2023-04-16T17:44:30.956Z,96877.28
2023-04-16T17:47:27.808Z,96878.88
2023-04-16T17:50:26.998Z,96881.25
2023-04-16T17:53:23.817Z,96883.13
2023-04-16T17:56:20.743Z,96882.69
2023-04-16T17:59:17.728Z,96890.34
2023-04-16T18:02:14.714Z,96894.59
2023-04-16T18:05:11.679Z,96892.25
2023-04-16T18:08:08.667Z,96897.63
2023-04-16T18:11:09.136Z,96902.69
2023-04-16T18:14:06.034Z,96900.03
2023-04-16T18:17:06.263Z,96913.34
2023-04-16T18:20:06.023Z,96904.22
2023-04-16T18:23:03.066Z,96905.53
2023-04-16T18:26:00.382Z,96905.47
2023-04-16T18:28:57.334Z,96912.97
2023-04-16T18:31:55.742Z,96918.38
2023-04-16T18:34:52.700Z,96925.34
2023-04-16T18:37:49.520Z,96933.88
2023-04-16T18:40:46.969Z,96928.94
2023-04-16T18:43:43.774Z,96931.75
2023-04-16T18:46:40.985Z,96930.31
2023-04-16T18:49:37.808Z,96938.38
2023-04-16T18:52:34.693Z,96940.84
2023-04-16T18:55:31.581Z,96947.44
2023-04-16T18:58:28.475Z,96947.78
2023-04-16T19:01:25.614Z,96949.66
2023-04-16T19:04:22.705Z,96951.28
2023-04-16T19:07:19.605Z,96952.88
2023-04-16T19:10:16.579Z,96957.34
2023-04-16T19:13:13.592Z,96946.13
2023-04-16T19:16:12.201Z,96952.59
2023-04-16T19:19:09.296Z,96961.19
2023-04-16T19:22:06.333Z,96961.16
2023-04-16T19:25:03.188Z,96962.47
2023-04-16T19:28:00.080Z,96967.50
2023-04-16T19:30:56.984Z,96967.84
2023-04-16T19:33:53.804Z,96971.28
2023-04-16T19:36:50.665Z,96975.25
2023-04-16T19:39:47.644Z,96981.69
2023-04-16T19:42:45.434Z,96973.94
2023-04-16T19:45:52.420Z,96966.47
2023-04-16T19:48:49.432Z,96964.63
2023-04-16T19:51:46.333Z,96968.06
2023-04-16T19:54:43.298Z,96964.03
2023-04-16T19:57:40.124Z,96968.84
2023-04-16T20:00:40.781Z,96972.94
2023-04-16T20:03:40.766Z,96977.69
2023-04-16T20:06:37.590Z,96980.09
2023-04-16T20:09:34.538Z,96987.28
2023-04-16T20:12:31.350Z,96985.38
2023-04-16T20:15:28.184Z,96971.47
2023-04-16T20:18:28.254Z,96976.59
2023-04-16T20:21:26.231Z,96984.06
2023-04-16T20:24:24.186Z,96975.56
2023-04-16T20:27:21.549Z,96970.69
2023-04-16T20:30:18.357Z,96977.16
2023-04-16T20:33:15.356Z,96977.41
2023-04-16T20:36:12.261Z,96973.91
2023-04-16T20:39:09.592Z,96976.63
2023-04-16T20:42:10.268Z,96972.09
2023-04-16T20:45:08.693Z,96980.63
2023-04-16T20:48:05.731Z,96974.75
2023-04-16T20:51:04.375Z,96977.19
2023-04-16T20:54:01.200Z,96973.13
2023-04-16T20:56:58.285Z,96970.63
2023-04-16T20:59:56.430Z,96971.84
2023-04-16T21:02:53.385Z,96970.81
2023-04-16T21:05:55.038Z,96977.66
2023-04-16T21:08:51.899Z,96968.56
2023-04-16T21:11:48.710Z,96982.47
2023-04-16T21:14:45.526Z,96966.22
2023-04-16T21:17:42.386Z,96973.06
2023-04-16T21:20:39.738Z,96978.13
2023-04-16T21:23:36.553Z,96976.84
2023-04-16T21:26:33.364Z,96979.97
2023-04-16T21:29:30.331Z,96983.75
2023-04-16T21:32:27.166Z,96982.19
2023-04-16T21:35:24.001Z,96984.59
2023-04-16T21:38:21.890Z,96985.91
2023-04-16T21:41:18.670Z,96983.56
2023-04-16T21:44:15.633Z,96982.16
2023-04-16T21:47:12.814Z,96980.59
2023-04-16T21:50:10.223Z,96987.25
2023-04-16T21:53:07.019Z,96982.72
2023-04-16T21:56:03.922Z,96983.56
2023-04-16T21:59:00.761Z,96988.34
2023-04-16T22:01:57.607Z,96991.28
2023-04-16T22:04:54.500Z,96988.06
2023-04-16T22:07:52.252Z,96991.53
2023-04-16T22:10:49.039Z,96982.50
2023-04-16T22:13:47.762Z,96983.28
2023-04-16T22:16:45.235Z,96982.72
2023-04-16T22:19:42.411Z,96979.03
2023-04-16T22:22:41.057Z,96974.50
2023-04-16T22:25:39.389Z,96979.84
2023-04-16T22:28:36.203Z,96971.78
2023-04-16T22:31:33.143Z,96970.19
2023-04-16T22:34:29.989Z,96978.19
2023-04-16T22:37:26.796Z,96969.66
2023-04-16T22:40:23.656Z,96969.13
2023-04-16T22:43:20.487Z,96967.22
2023-04-16T22:46:19.789Z,96965.41
2023-04-16T22:49:16.666Z,96965.94
2023-04-16T22:52:13.465Z,96972.63
2023-04-16T22:55:10.346Z,96971.56
2023-04-16T22:58:07.211Z,96968.28
2023-04-16T23:01:04.099Z,96969.72
2023-04-16T23:04:00.949Z,96969.38
2023-04-16T23:06:57.807Z,96968.84
2023-04-16T23:09:54.637Z,96958.19
2023-04-16T23:12:52.037Z,96963.25
2023-04-16T23:15:48.905Z,96962.22
2023-04-16T23:18:45.783Z,96957.94
2023-04-16T23:21:42.620Z,96963.78
2023-04-16T23:24:39.451Z,96955.25
2023-04-16T23:27:37.064Z,96959.06
2023-04-16T23:30:33.885Z,96957.69
2023-04-16T23:33:30.774Z,96954.78
2023-04-16T23:36:27.616Z,96946.25
2023-04-16T23:39:24.453Z,96951.06
2023-04-16T23:42:21.276Z,96948.66
2023-04-16T23:45:18.242Z,96944.69
2023-04-16T23:48:15.261Z,96938.56
2023-04-16T23:51:12.075Z,96935.09
2023-04-16T23:54:08.922Z,96940.66
2023-04-16T23:57:05.785Z,96936.13
